^^
Saratoga-Weather Station Historical Data
Daily Summary for July 7, 2021 Units:  English    Metric   Both
Daily Weekly Monthly Yearly Custom
  High: Low: Average:
Temperature: 82.6 °F 58.6 °F 69.3 °F
Dew Point: 62.6 °F 55.8 °F 58.5 °F
Humidity: 93% 41% 71%
Wind Speed: 6mph 0mph 0.7mph
Wind Gust: 10mph - -
Wind- - SE
Pressure: 30.2 in 30.1 in -
Precipitation: 0 in    
Historical Graphs
 
 
Tabular Data for July 7, 2021
Time Temperature Dew Point Pressure Wind Wind Speed Wind Gust Humidity Rainfall Rate (Hourly) solar
00:04 64.8 °F 58.1 °F 30.2 in WSW 0.9 mph 2 mph 79% 0 in 0 W/m2
00:09 65.1 °F 58.1 °F 30.2 in Calm   2 mph 78% 0 in 0 W/m2
00:14 65.3 °F 58.3 °F 30.2 in Calm   1 mph 78% 0 in 0 W/m2
00:19 65.5 °F 58.1 °F 30.2 in South 0.9 mph 2 mph 77% 0 in 0 W/m2
00:25 65.5 °F 58.1 °F 30.2 in Calm   5 mph 77% 0 in 0 W/m2
00:30 65.7 °F 58.3 °F 30.2 in WSW 0.9 mph 2 mph 77% 0 in 0 W/m2
00:35 65.7 °F 58.3 °F 30.2 in Calm   3 mph 77% 0 in 0 W/m2
00:40 65.5 °F 58.5 °F 30.2 in Calm   1 mph 78% 0 in 0 W/m2
00:45 65.1 °F 58.1 °F 30.2 in WSW 0.9 mph 1 mph 78% 0 in 0 W/m2
00:50 64.9 °F 58.3 °F 30.2 in Calm   3 mph 79% 0 in 0 W/m2
00:55 64.8 °F 58.1 °F 30.2 in Calm     79% 0 in 0 W/m2
01:00 64.8 °F 58.5 °F 30.2 in Calm   3 mph 80% 0 in 0 W/m2
01:05 64.9 °F 58.3 °F 30.2 in Calm     79% 0 in 0 W/m2
01:10 64.9 °F 58.6 °F 30.2 in Calm     80% 0 in 0 W/m2
01:15 64.9 °F 58.6 °F 30.2 in Calm     80% 0 in 0 W/m2
01:20 64.8 °F 58.5 °F 30.2 in Calm     80% 0 in 0 W/m2
01:25 64.8 °F 58.5 °F 30.2 in Calm     80% 0 in 0 W/m2
01:30 64.6 °F 58.6 °F 30.2 in Calm     81% 0 in 0 W/m2
01:35 64.4 °F 58.5 °F 30.2 in Calm     81% 0 in 0 W/m2
01:40 64.2 °F 58.6 °F 30.2 in Calm     82% 0 in 0 W/m2
01:45 64.2 °F 58.6 °F 30.2 in Calm     82% 0 in 0 W/m2
01:50 64.2 °F 58.6 °F 30.2 in Calm     82% 0 in 0 W/m2
01:55 64 °F 58.5 °F 30.2 in Calm     82% 0 in 0 W/m2
02:00 63.9 °F 58.3 °F 30.2 in Calm     82% 0 in 0 W/m2
02:05 63.9 °F 58.6 °F 30.2 in Calm     83% 0 in 0 W/m2
02:10 63.5 °F 58.3 °F 30.2 in Calm   2 mph 83% 0 in 0 W/m2
02:15 63.3 °F 58.5 °F 30.2 in Calm     84% 0 in 0 W/m2
02:20 63.1 °F 58.3 °F 30.2 in Calm     84% 0 in 0 W/m2
02:25 63 °F 58.1 °F 30.2 in Calm     84% 0 in 0 W/m2
02:30 62.6 °F 58.1 °F 30.2 in Calm     85% 0 in 0 W/m2
02:35 62.4 °F 57.9 °F 30.2 in SW 2 mph 3 mph 85% 0 in 0 W/m2
02:40 62.2 °F 57.9 °F 30.2 in Calm     86% 0 in 0 W/m2
02:45 62.2 °F 57.9 °F 30.2 in Calm   3 mph 86% 0 in 0 W/m2
02:50 62.1 °F 57.7 °F 30.2 in Calm     86% 0 in 0 W/m2
02:55 62.1 °F 57.7 °F 30.2 in Calm     86% 0 in 0 W/m2
03:00 61.9 °F 57.9 °F 30.2 in Calm   2 mph 87% 0 in 0 W/m2
03:05 61.7 °F 57.7 °F 30.2 in Calm     87% 0 in 0 W/m2
03:10 61.7 °F 57.7 °F 30.2 in Calm     87% 0 in 0 W/m2
03:15 61.5 °F 57.9 °F 30.2 in SW 0.9 mph 2 mph 88% 0 in 0 W/m2
03:20 61.3 °F 57.7 °F 30.2 in Calm   1 mph 88% 0 in 0 W/m2
03:26 61.2 °F 57.6 °F 30.2 in Calm   2 mph 88% 0 in 0 W/m2
03:31 61 °F 57.4 °F 30.2 in Calm     88% 0 in 0 W/m2
03:36 60.8 °F 57.6 °F 30.2 in Calm     89% 0 in 0 W/m2
03:41 60.6 °F 57.4 °F 30.2 in Calm     89% 0 in 0 W/m2
03:46 60.4 °F 57.2 °F 30.2 in Calm     89% 0 in 0 W/m2
03:51 60.4 °F 57.2 °F 30.2 in Calm     89% 0 in 0 W/m2
03:56 60.3 °F 57 °F 30.2 in Calm     89% 0 in 0 W/m2
04:01 60.3 °F 57 °F 30.2 in Calm     89% 0 in 0 W/m2
04:06 60.1 °F 57.2 °F 30.2 in Calm     90% 0 in 0 W/m2
04:11 60.1 °F 57.2 °F 30.2 in Calm     90% 0 in 0 W/m2
04:16 59.9 °F 57 °F 30.2 in Calm     90% 0 in 0 W/m2
04:21 59.7 °F 56.8 °F 30.2 in Calm     90% 0 in 0 W/m2
04:26 59.7 °F 56.8 °F 30.2 in Calm     90% 0 in 0 W/m2
04:31 59.5 °F 56.7 °F 30.2 in Calm     90% 0 in 0 W/m2
04:36 59.5 °F 56.7 °F 30.2 in Calm     90% 0 in 0 W/m2
04:41 59.4 °F 56.7 °F 30.2 in Calm     91% 0 in 0 W/m2
04:46 59.4 °F 57 °F 30.2 in Calm     92% 0 in 0 W/m2
04:51 59.4 °F 57 °F 30.2 in Calm     92% 0 in 0 W/m2
04:56 59.4 °F 56.7 °F 30.2 in Calm     91% 0 in 0 W/m2
05:01 59.4 °F 57 °F 30.2 in Calm     92% 0 in 0 W/m2
05:06 59.2 °F 56.8 °F 30.2 in Calm     92% 0 in 0 W/m2
05:11 59 °F 56.7 °F 30.2 in Calm     92% 0 in 0 W/m2
05:16 58.8 °F 56.5 °F 30.2 in Calm     92% 0 in 0 W/m2
05:21 58.6 °F 56.3 °F 30.2 in Calm     92% 0 in 0 W/m2
05:26 58.6 °F 56.3 °F 30.2 in SW 0.9 mph 2 mph 92% 0 in 0 W/m2
05:31 58.6 °F 56.3 °F 30.2 in Calm   1 mph 92% 0 in 0 W/m2
05:36 58.6 °F 56.7 °F 30.2 in Calm     93% 0 in 0 W/m2
05:41 58.8 °F 56.8 °F 30.2 in Calm   1 mph 93% 0 in 0 W/m2
05:46 58.8 °F 56.8 °F 30.2 in Calm     93% 0 in 0 W/m2
05:51 59 °F 57 °F 30.2 in SW 2 mph 2 mph 93% 0 in 0 W/m2
05:56 59.4 °F 57.4 °F 30.2 in Calm     93% 0 in 0 W/m2
06:01 59.5 °F 57.6 °F 30.2 in Calm   1 mph 93% 0 in 0 W/m2
06:06 59.7 °F 57.4 °F 30.2 in WSW 2 mph 2 mph 92% 0 in 0 W/m2
06:11 60.1 °F 57.7 °F 30.2 in South 0.9 mph 1 mph 92% 0 in 0 W/m2
06:16 60.3 °F 57.6 °F 30.2 in South 0.9 mph 2 mph 91% 0 in 0 W/m2
06:21 60.4 °F 57.7 °F 30.2 in SW 0.9 mph 2 mph 91% 0 in 0 W/m2
06:26 60.4 °F 57.6 °F 30.2 in Calm   2 mph 90% 0 in 0 W/m2
06:31 60.6 °F 57.7 °F 30.2 in Calm   1 mph 90% 0 in 0 W/m2
06:36 60.6 °F 57.7 °F 30.2 in Calm   1 mph 90% 0 in 0 W/m2
06:41 60.8 °F 57.6 °F 30.2 in Calm   1 mph 89% 0 in 0 W/m2
06:46 60.8 °F 57.6 °F 30.2 in Calm     89% 0 in 0 W/m2
06:51 60.6 °F 57.4 °F 30.2 in Calm   2 mph 89% 0 in 0 W/m2
06:56 60.6 °F 57.4 °F 30.2 in SW 0.9 mph 1 mph 89% 0 in 0 W/m2
07:01 60.4 °F 57.2 °F 30.2 in SW 0.9 mph 2 mph 89% 0 in 0 W/m2
07:06 60.4 °F 57.2 °F 30.2 in Calm   1 mph 89% 0 in 0 W/m2
07:11 60.4 °F 57.2 °F 30.2 in Calm   2 mph 89% 0 in 5 W/m2
07:16 60.4 °F 57.2 °F 30.2 in SW 0.9 mph 1 mph 89% 0 in 7 W/m2
07:21 60.3 °F 57 °F 30.2 in Calm   2 mph 89% 0 in 9 W/m2
07:26 60.3 °F 57 °F 30.2 in Calm   1 mph 89% 0 in 11 W/m2
07:31 60.3 °F 57.4 °F 30.2 in Calm   2 mph 90% 0 in 12 W/m2
07:36 60.3 °F 57.4 °F 30.2 in Calm   1 mph 90% 0 in 16 W/m2
07:41 60.3 °F 57.4 °F 30.2 in Calm     90% 0 in 21 W/m2
07:46 60.4 °F 57.6 °F 30.2 in Calm   2 mph 90% 0 in 25 W/m2
07:51 60.4 °F 57.6 °F 30.2 in Calm   1 mph 90% 0 in 30 W/m2
07:56 60.4 °F 57.6 °F 30.2 in Calm   2 mph 90% 0 in 39 W/m2
08:01 60.6 °F 57.4 °F 30.2 in Calm   1 mph 89% 0 in 47 W/m2
08:06 61.2 °F 57.6 °F 30.2 in SSW 0.9 mph 1 mph 88% 0 in 58 W/m2
08:11 61.3 °F 57.7 °F 30.2 in Calm   1 mph 88% 0 in 69 W/m2
08:16 61.5 °F 57.9 °F 30.2 in Calm     88% 0 in 83 W/m2
08:21 61.9 °F 58.3 °F 30.2 in Calm     88% 0 in 100 W/m2
08:26 62.1 °F 58.1 °F 30.2 in Calm     87% 0 in 97 W/m2
08:31 62.2 °F 58.3 °F 30.2 in Calm     87% 0 in 97 W/m2
08:36 62.4 °F 58.1 °F 30.2 in Calm     86% 0 in 123 W/m2
08:41 62.6 °F 58.1 °F 30.2 in Calm     85% 0 in 107 W/m2
08:47 62.8 °F 57.9 °F 30.2 in Calm     84% 0 in 134 W/m2
08:52 63 °F 58.1 °F 30.2 in Calm     84% 0 in 130 W/m2
08:57 63.1 °F 58.3 °F 30.2 in Calm   1 mph 84% 0 in 172 W/m2
09:02 63.3 °F 58.1 °F 30.2 in SSW 0.9 mph 1 mph 83% 0 in 86 W/m2
09:07 63.7 °F 58.5 °F 30.2 in Calm     83% 0 in 100 W/m2
09:12 64 °F 58.5 °F 30.2 in Calm     82% 0 in 193 W/m2
09:17 64.4 °F 58.5 °F 30.2 in East 2 mph 2 mph 81% 0 in 171 W/m2
09:22 64.6 °F 58.6 °F 30.2 in Calm   1 mph 81% 0 in 271 W/m2
09:27 64.9 °F 58.6 °F 30.2 in Calm   2 mph 80% 0 in 202 W/m2
09:32 65.5 °F 58.8 °F 30.2 in Calm   1 mph 79% 0 in 183 W/m2
09:37 65.7 °F 58.6 °F 30.2 in ENE 0.9 mph 2 mph 78% 0 in 283 W/m2
09:42 66 °F 59 °F 30.2 in ENE 0.9 mph 2 mph 78% 0 in 316 W/m2
09:47 66.2 °F 59.2 °F 30.2 in NNE 0.9 mph 3 mph 78% 0 in 330 W/m2
09:52 66.6 °F 59.5 °F 30.2 in East 2 mph 3 mph 78% 0 in 325 W/m2
09:57 66.9 °F 59.5 °F 30.2 in Calm   1 mph 77% 0 in 330 W/m2
10:02 67.3 °F 59.5 °F 30.2 in Calm   1 mph 76% 0 in 364 W/m2
10:07 67.6 °F 59.4 °F 30.2 in East 2.9 mph 4 mph 75% 0 in 367 W/m2
10:12 67.6 °F 59.4 °F 30.2 in Calm   2 mph 75% 0 in 403 W/m2
10:17 68 °F 59.7 °F 30.2 in Calm   4 mph 75% 0 in 415 W/m2
10:22 68.5 °F 59.9 °F 30.2 in NE 2 mph 3 mph 74% 0 in 383 W/m2
10:27 68.7 °F 59.7 °F 30.2 in East 2 mph 3 mph 73% 0 in 373 W/m2
10:32 69.1 °F 60.1 °F 30.2 in ESE 0.9 mph 3 mph 73% 0 in 413 W/m2
10:37 69.3 °F 59.9 °F 30.2 in Calm   1 mph 72% 0 in 436 W/m2
10:42 69.6 °F 60.3 °F 30.2 in SE 2 mph 2 mph 72% 0 in 461 W/m2
10:47 70 °F 60.1 °F 30.2 in East 2 mph 3 mph 71% 0 in 448 W/m2
10:52 70.3 °F 60.4 °F 30.2 in Calm     71% 0 in 411 W/m2
10:57 70.9 °F 60.3 °F 30.2 in NE 2 mph 2 mph 69% 0 in 462 W/m2
11:02 71.2 °F 60.1 °F 30.2 in ENE 2.9 mph 4 mph 68% 0 in 485 W/m2
11:07 70.9 °F 60.3 °F 30.2 in East 2 mph 4 mph 69% 0 in 529 W/m2
11:12 71.1 °F 60.4 °F 30.2 in ESE 0.9 mph 3 mph 69% 0 in 496 W/m2
11:17 71.4 °F 60.3 °F 30.2 in SE 0.9 mph 4 mph 68% 0 in 526 W/m2
11:22 72 °F 59.9 °F 30.2 in Calm   2 mph 66% 0 in 515 W/m2
11:27 72.1 °F 60.1 °F 30.2 in East 2 mph 4 mph 66% 0 in 446 W/m2
11:32 72.3 °F 59.9 °F 30.2 in NE 0.9 mph 4 mph 65% 0 in 564 W/m2
11:37 72.7 °F 60.6 °F 30.2 in East 2.9 mph 5 mph 66% 0 in 540 W/m2
11:42 72.9 °F 60.8 °F 30.2 in NNE 2.9 mph 3 mph 66% 0 in 561 W/m2
11:47 73 °F 60.6 °F 30.2 in ENE 2 mph 2 mph 65% 0 in 494 W/m2
11:52 73.2 °F 61.2 °F 30.2 in North 2.9 mph 3 mph 66% 0 in 527 W/m2
11:57 73.6 °F 60.6 °F 30.2 in ESE 0.9 mph 4 mph 64% 0 in 573 W/m2
12:02 73.8 °F 60.8 °F 30.2 in Calm   3 mph 64% 0 in 573 W/m2
12:07 73.9 °F 61 °F 30.2 in ENE 0.9 mph 2 mph 64% 0 in 608 W/m2
12:12 74.5 °F 60.6 °F 30.2 in North 4 mph 5 mph 62% 0 in 571 W/m2
12:17 74.7 °F 60.8 °F 30.2 in NE 2 mph 6 mph 62% 0 in 529 W/m2
12:22 74.7 °F 60.8 °F 30.2 in Calm   4 mph 62% 0 in 594 W/m2
12:27 75 °F 62.1 °F 30.2 in ENE 4 mph 6 mph 64% 0 in 578 W/m2
12:32 75.6 °F 61.2 °F 30.2 in West 2 mph 4 mph 61% 0 in 671 W/m2
12:37 75.6 °F 61.2 °F 30.2 in NNE 2 mph 7 mph 61% 0 in 671 W/m2
12:42 75.9 °F 61 °F 30.2 in ESE 2 mph 4 mph 60% 0 in 691 W/m2
12:47 76.6 °F 62.2 °F 30.2 in East 2 mph 6 mph 61% 0 in 570 W/m2
12:52 77.2 °F 62.2 °F 30.2 in SE 0.9 mph 2 mph 60% 0 in 545 W/m2
12:57 77.5 °F 62.1 °F 30.2 in East 0.9 mph 1 mph 59% 0 in 543 W/m2
13:02 78.1 °F 62.6 °F 30.2 in Calm   3 mph 59% 0 in 608 W/m2
13:08 78.4 °F 62.4 °F 30.2 in ESE 0.9 mph 3 mph 58% 0 in 564 W/m2
13:13 78.6 °F 62.1 °F 30.2 in NE 0.9 mph 4 mph 57% 0 in 666 W/m2
13:18 78.8 °F 62.2 °F 30.2 in Calm     57% 0 in 668 W/m2
13:23 79.2 °F 62.1 °F 30.2 in Calm   4 mph 56% 0 in 580 W/m2
13:28 79.3 °F 61.2 °F 30.2 in ESE 2.9 mph 3 mph 54% 0 in 686 W/m2
13:33 79.2 °F 60.6 °F 30.2 in East 4 mph 6 mph 53% 0 in 663 W/m2
13:38 79.2 °F 61.5 °F 30.2 in NNW 2 mph 2 mph 55% 0 in 649 W/m2
13:43 79.5 °F 62.4 °F 30.2 in North 0.9 mph 4 mph 56% 0 in 580 W/m2
13:48 79.5 °F 61.3 °F 30.2 in NE 4 mph 4 mph 54% 0 in 689 W/m2
13:53 79.9 °F 60.6 °F 30.2 in ENE 2.9 mph 6 mph 52% 0 in 596 W/m2
13:58 79.9 °F 59 °F 30.2 in SE 4 mph 10 mph 49% 0 in 663 W/m2
14:03 79.9 °F 58.5 °F 30.1 in East 6 mph 7 mph 48% 0 in 673 W/m2
14:08 80.2 °F 58.1 °F 30.1 in SE 2 mph 10 mph 47% 0 in 664 W/m2
14:13 80.6 °F 58.5 °F 30.1 in Calm   7 mph 47% 0 in 714 W/m2
14:18 81 °F 60.1 °F 30.1 in East 0.9 mph 8 mph 49% 0 in 737 W/m2
14:23 81.3 °F 57.9 °F 30.1 in ENE 4 mph 6 mph 45% 0 in 717 W/m2
14:28 81.5 °F 58.1 °F 30.1 in ENE 0.9 mph 4 mph 45% 0 in 429 W/m2
14:33 81.1 °F 59 °F 30.1 in SE 2.9 mph 4 mph 47% 0 in 411 W/m2
14:38 80.6 °F 56.1 °F 30.1 in NNE 0.9 mph 3 mph 43% 0 in 664 W/m2
14:43 80.8 °F 57.4 °F 30.1 in ENE 2.9 mph 7 mph 45% 0 in 714 W/m2
14:48 81.3 °F 57.4 °F 30.1 in Calm   6 mph 44% 0 in 654 W/m2
14:53 81.5 °F 58.6 °F 30.1 in East 0.9 mph 7 mph 46% 0 in 186 W/m2
14:58 81.1 °F 57.7 °F 30.1 in East 2 mph 2 mph 45% 0 in 605 W/m2
15:03 81 °F 57.6 °F 30.1 in NE 0.9 mph 7 mph 45% 0 in 642 W/m2
15:08 81.1 °F 57.2 °F 30.1 in East 2.9 mph 4 mph 44% 0 in 628 W/m2
15:13 81.5 °F 58.1 °F 30.1 in NE 0.9 mph 5 mph 45% 0 in 619 W/m2
15:18 81.7 °F 57.6 °F 30.1 in NNW 0.9 mph 4 mph 44% 0 in 622 W/m2
15:23 81.7 °F 56.3 °F 30.1 in North 0.9 mph 6 mph 42% 0 in 605 W/m2
15:28 82 °F 55.9 °F 30.1 in ENE 2 mph 5 mph 41% 0 in 554 W/m2
15:33 82 °F 57.4 °F 30.1 in East 4 mph 4 mph 43% 0 in 534 W/m2
15:38 81.9 °F 57.2 °F 30.1 in South 0.9 mph 3 mph 43% 0 in 520 W/m2
15:43 81.7 °F 55.8 °F 30.1 in ESE 0.9 mph 5 mph 41% 0 in 568 W/m2
15:48 81.5 °F 56.1 °F 30.1 in ENE 4.9 mph 7 mph 42% 0 in 548 W/m2
15:53 81.5 °F 58.1 °F 30.1 in ENE 4.9 mph 5 mph 45% 0 in 589 W/m2
15:58 81.9 °F 57.2 °F 30.1 in East 0.9 mph 7 mph 43% 0 in 575 W/m2
16:03 82 °F 57.9 °F 30.1 in Calm   3 mph 44% 0 in 550 W/m2
16:08 82.2 °F 58.1 °F 30.1 in ESE 0.9 mph 3 mph 44% 0 in 557 W/m2
16:13 82.6 °F 57.2 °F 30.1 in Calm   4 mph 42% 0 in 538 W/m2
16:18 82.4 °F 57 °F 30.1 in Calm   3 mph 42% 0 in 540 W/m2
16:23 82.4 °F 58.3 °F 30.1 in SSW 0.9 mph 3 mph 44% 0 in 468 W/m2
16:28 82.4 °F 58.3 °F 30.1 in Calm   6 mph 44% 0 in 496 W/m2
16:33 82.2 °F 58.1 °F 30.1 in ESE 2 mph 4 mph 44% 0 in 515 W/m2
16:38 82 °F 57.9 °F 30.1 in SSE 0.9 mph 5 mph 44% 0 in 510 W/m2
16:43 82 °F 57.9 °F 30.1 in ESE 4 mph 4 mph 44% 0 in 501 W/m2
16:48 82 °F 57.9 °F 30.1 in East 2 mph 4 mph 44% 0 in 483 W/m2
16:53 82 °F 57.4 °F 30.1 in SE 0.9 mph 3 mph 43% 0 in 469 W/m2
16:58 81.9 °F 57.2 °F 30.1 in NE 2 mph 5 mph 43% 0 in 441 W/m2
17:03 82 °F 57.4 °F 30.1 in SE 0.9 mph 2 mph 43% 0 in 436 W/m2
17:08 82.2 °F 58.1 °F 30.1 in NE 0.9 mph 5 mph 44% 0 in 439 W/m2
17:13 82.6 °F 57.7 °F 30.1 in East 2 mph 3 mph 43% 0 in 432 W/m2
17:18 82.6 °F 58.5 °F 30.1 in Calm   1 mph 44% 0 in 396 W/m2
17:23 82.2 °F 58.1 °F 30.1 in East 0.9 mph 2 mph 44% 0 in 373 W/m2
17:28 82 °F 58.6 °F 30.1 in ESE 2 mph 3 mph 45% 0 in 388 W/m2
17:33 81.9 °F 57.2 °F 30.1 in ENE 0.9 mph 6 mph 43% 0 in 287 W/m2
17:38 81.9 °F 58.5 °F 30.1 in ENE 2 mph 4 mph 45% 0 in 343 W/m2
17:43 81.5 °F 58.1 °F 30.1 in Calm   6 mph 45% 0 in 332 W/m2
17:48 81.5 °F 59.4 °F 30.1 in SSE 2 mph 2 mph 47% 0 in 318 W/m2
17:53 81.5 °F 58.1 °F 30.1 in SE 0.9 mph 3 mph 45% 0 in 304 W/m2
17:58 81.7 °F 59.5 °F 30.1 in West 2 mph 3 mph 47% 0 in 299 W/m2
18:03 81.3 °F 57.9 °F 30.1 in East 0.9 mph 1 mph 45% 0 in 292 W/m2
18:08 81.3 °F 59.7 °F 30.1 in ESE 0.9 mph 3 mph 48% 0 in 272 W/m2
18:13 81.3 °F 59.2 °F 30.1 in SE 0.9 mph 2 mph 47% 0 in 264 W/m2
18:18 81.3 °F 59.7 °F 30.1 in Calm   2 mph 48% 0 in 241 W/m2
18:23 81.1 °F 59 °F 30.1 in Calm   1 mph 47% 0 in 220 W/m2
18:28 81 °F 59.4 °F 30.1 in South 0.9 mph 3 mph 48% 0 in 221 W/m2
18:33 80.8 °F 58.1 °F 30.1 in ENE 0.9 mph 6 mph 46% 0 in 209 W/m2
18:38 80.4 °F 59.5 °F 30.1 in Calm   1 mph 49% 0 in 195 W/m2
18:43 80.1 °F 59.2 °F 30.1 in SSE 0.9 mph 6 mph 49% 0 in 181 W/m2
18:48 79.7 °F 59.4 °F 30.1 in SSW 0.9 mph 2 mph 50% 0 in 171 W/m2
18:53 79.3 °F 59 °F 30.1 in SSW 0.9 mph 1 mph 50% 0 in 163 W/m2
18:58 78.8 °F 59.7 °F 30.1 in Calm   1 mph 52% 0 in 144 W/m2
19:03 78.3 °F 59.7 °F 30.1 in SSW 2 mph 2 mph 53% 0 in 130 W/m2
19:08 77.7 °F 59.2 °F 30.1 in Calm   2 mph 53% 0 in 114 W/m2
19:13 77.2 °F 57.7 °F 30.1 in ESE 0.9 mph 6 mph 51% 0 in 95 W/m2
19:18 76.6 °F 59.2 °F 30.1 in ESE 0.9 mph 1 mph 55% 0 in 69 W/m2
19:23 76.1 °F 59.2 °F 30.1 in SE 0.9 mph 4 mph 56% 0 in 40 W/m2
19:28 75.6 °F 59.2 °F 30.1 in Calm   1 mph 57% 0 in 37 W/m2
19:33 75 °F 59.2 °F 30.1 in Calm     58% 0 in 33 W/m2
19:38 74.7 °F 59.4 °F 30.1 in SE 0.9 mph 2 mph 59% 0 in 30 W/m2
19:43 74.1 °F 58.8 °F 30.1 in SE 2 mph 2 mph 59% 0 in 28 W/m2
19:48 73.9 °F 59.2 °F 30.1 in SE 0.9 mph 2 mph 60% 0 in 23 W/m2
19:53 73.6 °F 59.4 °F 30.1 in SE 2 mph 2 mph 61% 0 in 19 W/m2
19:58 72.9 °F 59 °F 30.1 in SE 0.9 mph 2 mph 62% 0 in 14 W/m2
20:03 72.3 °F 58.6 °F 30.1 in SE 0.9 mph 2 mph 62% 0 in 11 W/m2
20:08 71.8 °F 59 °F 30.1 in Calm   2 mph 64% 0 in 5 W/m2
20:13 71.4 °F 59 °F 30.1 in SE 0.9 mph 2 mph 65% 0 in 5 W/m2
20:18 71.1 °F 58.6 °F 30.1 in SE 2 mph 2 mph 65% 0 in 5 W/m2
20:23 70.7 °F 58.8 °F 30.1 in SE 0.9 mph 2 mph 66% 0 in 0 W/m2
20:28 70.3 °F 58.8 °F 30.1 in SE 0.9 mph 2 mph 67% 0 in 0 W/m2
20:33 70 °F 58.5 °F 30.1 in SE 0.9 mph 2 mph 67% 0 in 0 W/m2
20:38 69.6 °F 58.6 °F 30.1 in SE 0.9 mph 1 mph 68% 0 in 0 W/m2
20:43 69.4 °F 58.5 °F 30.1 in Calm   1 mph 68% 0 in 0 W/m2
20:48 69.1 °F 58.5 °F 30.1 in SE 0.9 mph 1 mph 69% 0 in 0 W/m2
20:53 68.7 °F 58.1 °F 30.1 in SE 0.9 mph 1 mph 69% 0 in 0 W/m2
20:58 68.5 °F 58.3 °F 30.1 in SE 0.9 mph 1 mph 70% 0 in 0 W/m2
21:03 68.2 °F 58.5 °F 30.1 in SE 0.9 mph   71% 0 in 0 W/m2
21:08 67.8 °F 58.1 °F 30.1 in SE 0.9 mph   71% 0 in 0 W/m2
21:13 67.6 °F 58.3 °F 30.1 in Calm     72% 0 in 0 W/m2
21:19 67.5 °F 58.5 °F 30.1 in Calm     73% 0 in 0 W/m2
21:24 67.3 °F 58.3 °F 30.1 in Calm     73% 0 in 0 W/m2
21:29 66.9 °F 57.9 °F 30.1 in Calm     73% 0 in 0 W/m2
21:34 66.9 °F 57.9 °F 30.1 in Calm     73% 0 in 0 W/m2
21:39 66.6 °F 58.1 °F 30.1 in Calm     74% 0 in 0 W/m2
21:44 66.6 °F 58.5 °F 30.1 in Calm   2 mph 75% 0 in 0 W/m2
21:49 66.2 °F 58.1 °F 30.1 in Calm     75% 0 in 0 W/m2
21:54 66 °F 57.9 °F 30.1 in Calm   2 mph 75% 0 in 0 W/m2
21:59 65.8 °F 58.1 °F 30.1 in Calm     76% 0 in 0 W/m2
22:04 65.8 °F 58.1 °F 30.1 in Calm     76% 0 in 0 W/m2
22:09 65.7 °F 58.3 °F 30.1 in Calm     77% 0 in 0 W/m2
22:14 65.5 °F 58.1 °F 30.1 in Calm     77% 0 in 0 W/m2
22:19 65.3 °F 57.9 °F 30.1 in Calm     77% 0 in 0 W/m2
22:24 64.9 °F 57.6 °F 30.1 in Calm     77% 0 in 0 W/m2
22:29 64.9 °F 57.9 °F 30.1 in Calm     78% 0 in 0 W/m2
22:34 64.8 °F 57.4 °F 30.1 in Calm     77% 0 in 0 W/m2
22:39 64.6 °F 57.6 °F 30.1 in Calm     78% 0 in 0 W/m2
22:44 64.6 °F 57.6 °F 30.1 in Calm     78% 0 in 0 W/m2
22:49 64.2 °F 57.2 °F 30.1 in Calm     78% 0 in 0 W/m2
22:54 64 °F 57.4 °F 30.1 in Calm     79% 0 in 0 W/m2
22:59 64 °F 57.4 °F 30.1 in Calm     79% 0 in 0 W/m2
23:04 63.9 °F 57.2 °F 30.1 in Calm     79% 0 in 0 W/m2
23:09 63.7 °F 57 °F 30.1 in Calm     79% 0 in 0 W/m2
23:14 63.5 °F 57.2 °F 30.1 in Calm     80% 0 in 0 W/m2
23:19 63.3 °F 57 °F 30.1 in Calm     80% 0 in 0 W/m2
23:24 63.3 °F 57 °F 30.1 in Calm     80% 0 in 0 W/m2
23:29 63.1 °F 56.8 °F 30.1 in Calm     80% 0 in 0 W/m2
23:34 63.1 °F 57.2 °F 30.1 in Calm     81% 0 in 0 W/m2
23:39 63.1 °F 57.2 °F 30.1 in Calm     81% 0 in 0 W/m2
23:44 63.1 °F 57.2 °F 30.1 in Calm     81% 0 in 0 W/m2
23:49 63 °F 57 °F 30.1 in Calm     81% 0 in 0 W/m2
23:54 63 °F 57 °F 30.1 in Calm     81% 0 in 0 W/m2
23:59 62.8 °F 56.8 °F 30.1 in Calm     81% 0 in 0 W/m2
Juneau County Weather
Compliments of Weather Underground - 4 mb